Terminal Aerodrome Forecast
Issued by NWS

Home | Current Version | Previous Version | Text Only | Print | Product List | Glossary On
Versions: 1 2 3 4 5 6 7 8 9 10 11 12 13
000
FTUS44 KMOB 251848 AAA
TAFBFM
TAF AMD
KBFM 251848Z 2519/2618 15005KT P6SM VCTS SCT030CB SCT250
      TEMPO 2519/2523 VRB25KT 2SM TSRA BKN025CB
     FM260300 30002KT P6SM FEW050 FEW250
     FM261200 36003KT 4SM BR FEW250
     FM261500 04005KT P6SM FEW250=

USA.gov is the U.S. government's official web portal to all federal, state and local government web resources and services.